createdAt,value
2023-03-21T00:01:52.693Z,68.37
2023-03-21T00:04:21.557Z,68.32
2023-03-21T00:06:51.876Z,68.06
2023-03-21T00:09:20.538Z,67.87
2023-03-21T00:11:49.553Z,68.05
2023-03-21T00:14:19.076Z,68.00
2023-03-21T00:16:51.083Z,68.52
2023-03-21T00:19:25.028Z,68.54
2023-03-21T00:22:06.985Z,68.73
2023-03-21T00:24:37.245Z,68.93
2023-03-21T00:27:30.284Z,68.88
2023-03-21T00:29:57.087Z,68.88
2023-03-21T00:32:27.921Z,68.84
2023-03-21T00:35:13.962Z,68.97
2023-03-21T00:37:47.997Z,69.27
2023-03-21T00:40:26.733Z,69.54
2023-03-21T00:42:59.723Z,69.74
2023-03-21T00:45:28.243Z,69.56
2023-03-21T00:47:56.841Z,69.69
2023-03-21T00:50:25.706Z,69.37
2023-03-21T00:52:55.520Z,69.65
2023-03-21T00:55:26.888Z,69.42
2023-03-21T00:58:01.503Z,69.12
2023-03-21T01:00:30.523Z,69.32
2023-03-21T01:03:17.518Z,69.52
2023-03-21T01:06:08.431Z,69.13
2023-03-21T01:08:55.010Z,69.39
2023-03-21T01:11:25.581Z,69.49
2023-03-21T01:14:04.010Z,69.71
2023-03-21T01:16:36.311Z,69.70
2023-03-21T01:19:09.452Z,69.48
2023-03-21T01:21:43.522Z,69.73
2023-03-21T01:24:14.338Z,69.95
2023-03-21T01:26:42.769Z,69.45
2023-03-21T01:29:11.559Z,69.79
2023-03-21T01:31:40.249Z,69.47
2023-03-21T01:34:09.289Z,69.71
2023-03-21T01:36:37.969Z,69.77
2023-03-21T01:39:10.687Z,69.75
2023-03-21T01:41:44.331Z,70.05
2023-03-21T01:44:21.996Z,70.10
2023-03-21T01:47:10.944Z,69.93
2023-03-21T01:49:48.690Z,70.19
2023-03-21T01:52:40.559Z,69.13
2023-03-21T01:55:15.610Z,69.30
2023-03-21T01:58:06.427Z,69.21
2023-03-21T02:01:05.871Z,68.51
2023-03-21T02:03:50.286Z,69.20
2023-03-21T02:06:35.496Z,68.46
2023-03-21T02:09:17.856Z,68.43
2023-03-21T02:11:47.973Z,69.13
2023-03-21T02:14:29.011Z,68.44
2023-03-21T02:17:12.286Z,69.52
2023-03-21T02:20:13.525Z,69.69
2023-03-21T02:23:29.562Z,69.40
2023-03-21T02:26:42.391Z,69.34
2023-03-21T02:29:32.880Z,70.10
2023-03-21T02:32:22.431Z,70.54
2023-03-21T02:35:17.400Z,70.62
2023-03-21T02:37:58.572Z,69.93
2023-03-21T02:40:35.062Z,70.29
2023-03-21T02:43:22.229Z,70.72
2023-03-21T02:45:56.351Z,70.38
2023-03-21T02:48:38.113Z,70.05
2023-03-21T02:51:17.574Z,70.29
2023-03-21T02:54:21.892Z,70.53
2023-03-21T02:56:45.951Z,69.99
2023-03-21T02:59:16.399Z,69.88
2023-03-21T03:01:45.275Z,69.97
2023-03-21T03:04:23.272Z,69.32
2023-03-21T03:07:14.471Z,70.06
2023-03-21T03:10:01.157Z,70.41
2023-03-21T03:12:37.581Z,71.03
2023-03-21T03:15:19.316Z,71.11
2023-03-21T03:17:55.788Z,70.00
2023-03-21T03:20:31.822Z,71.20
2023-03-21T03:23:08.898Z,70.67
2023-03-21T03:25:43.886Z,70.81
2023-03-21T03:28:19.774Z,71.33
2023-03-21T03:31:07.044Z,71.02
2023-03-21T03:33:45.613Z,70.80
2023-03-21T03:36:33.599Z,71.50
2023-03-21T03:39:10.801Z,70.91
2023-03-21T03:42:08.085Z,70.72
2023-03-21T03:44:41.305Z,71.14
2023-03-21T03:47:22.893Z,71.41
2023-03-21T03:50:02.374Z,71.33
2023-03-21T03:52:40.081Z,71.10
2023-03-21T03:55:17.842Z,71.02
2023-03-21T03:57:51.088Z,71.24
2023-03-21T04:00:21.033Z,70.65
2023-03-21T04:02:51.826Z,71.06
2023-03-21T04:05:25.158Z,71.82
2023-03-21T04:07:55.139Z,71.74
2023-03-21T04:10:32.227Z,70.92
2023-03-21T04:13:03.412Z,71.46
2023-03-21T04:15:45.981Z,71.17
2023-03-21T04:18:17.455Z,72.04
2023-03-21T04:20:46.302Z,71.64
2023-03-21T04:23:14.877Z,72.31
2023-03-21T04:25:55.937Z,71.59
2023-03-21T04:28:33.714Z,72.22
2023-03-21T04:31:28.715Z,71.55
2023-03-21T04:34:10.177Z,72.37
2023-03-21T04:36:44.698Z,71.34
2023-03-21T04:39:13.615Z,71.07
2023-03-21T04:41:44.752Z,71.24
2023-03-21T04:44:16.675Z,71.76
2023-03-21T04:46:45.749Z,71.65
2023-03-21T04:49:15.655Z,71.34
2023-03-21T04:51:46.458Z,71.72
2023-03-21T04:54:21.166Z,70.92
2023-03-21T04:56:49.633Z,71.22
2023-03-21T04:59:21.512Z,71.44
2023-03-21T05:01:51.173Z,71.58
2023-03-21T05:04:20.746Z,70.77
2023-03-21T05:06:49.232Z,71.02
2023-03-21T05:09:18.208Z,71.25
2023-03-21T05:11:46.652Z,71.63
2023-03-21T05:14:20.343Z,71.74
2023-03-21T05:16:53.565Z,72.01
2023-03-21T05:19:24.571Z,71.69
2023-03-21T05:21:53.471Z,72.01
2023-03-21T05:24:24.732Z,71.62
2023-03-21T05:26:56.382Z,71.68
2023-03-21T05:29:33.912Z,72.03
2023-03-21T05:32:05.315Z,72.36
2023-03-21T05:34:33.704Z,71.74
2023-03-21T05:37:03.060Z,72.08
2023-03-21T05:39:45.033Z,71.86
2023-03-21T05:42:20.777Z,70.87
2023-03-21T05:44:52.008Z,71.52
2023-03-21T05:47:25.487Z,71.19
2023-03-21T05:49:55.391Z,71.23
2023-03-21T05:52:24.829Z,71.35
2023-03-21T05:54:53.588Z,71.62
2023-03-21T05:57:26.413Z,71.99
2023-03-21T06:00:07.301Z,71.77
2023-03-21T06:02:44.755Z,71.55
2023-03-21T06:05:31.737Z,72.16
2023-03-21T06:08:00.258Z,72.46
2023-03-21T06:10:28.989Z,71.88
2023-03-21T06:12:58.456Z,71.58
2023-03-21T06:15:32.042Z,71.71
2023-03-21T06:18:13.181Z,72.42
2023-03-21T06:20:50.921Z,71.40
2023-03-21T06:23:19.361Z,72.00
2023-03-21T06:25:49.472Z,71.22
2023-03-21T06:28:19.010Z,71.08
2023-03-21T06:30:48.842Z,71.93
2023-03-21T06:33:21.956Z,71.42
2023-03-21T06:35:53.627Z,71.77
2023-03-21T06:38:23.171Z,72.14
2023-03-21T06:40:51.984Z,72.19
2023-03-21T06:43:20.600Z,72.63
2023-03-21T06:45:50.502Z,71.96
2023-03-21T06:48:19.103Z,72.82
2023-03-21T06:50:51.961Z,72.42
2023-03-21T06:53:24.598Z,71.98
2023-03-21T06:56:17.485Z,72.41
2023-03-21T06:58:47.244Z,71.88
2023-03-21T07:01:37.081Z,71.71
2023-03-21T07:04:08.595Z,71.80
2023-03-21T07:06:37.381Z,72.31
2023-03-21T07:09:06.833Z,72.43
2023-03-21T07:11:37.799Z,71.78
2023-03-21T07:14:07.798Z,71.67
2023-03-21T07:16:39.774Z,71.99
2023-03-21T07:19:08.172Z,72.09
2023-03-21T07:21:36.533Z,72.09
2023-03-21T07:24:05.690Z,71.68
2023-03-21T07:26:34.475Z,72.07
2023-03-21T07:29:04.995Z,71.74
2023-03-21T07:31:33.520Z,71.59
2023-03-21T07:34:06.116Z,71.44
2023-03-21T07:36:34.749Z,71.32
2023-03-21T07:39:03.142Z,70.66
2023-03-21T07:41:31.623Z,70.42
2023-03-21T07:44:11.928Z,70.24
2023-03-21T07:46:40.356Z,69.26
2023-03-21T07:49:10.158Z,68.93
2023-03-21T07:51:39.162Z,69.11
2023-03-21T07:54:07.840Z,68.34
2023-03-21T07:56:36.519Z,67.97
2023-03-21T07:59:05.600Z,67.82
2023-03-21T08:01:34.139Z,67.30
2023-03-21T08:04:02.516Z,66.82
2023-03-21T08:06:32.669Z,67.30
2023-03-21T08:09:01.609Z,66.40
2023-03-21T08:11:31.590Z,66.26
2023-03-21T08:14:00.170Z,66.08
2023-03-21T08:16:29.351Z,65.68
2023-03-21T08:18:57.773Z,65.92
2023-03-21T08:21:28.179Z,65.48
2023-03-21T08:23:58.256Z,65.47
2023-03-21T08:26:26.775Z,64.31
2023-03-21T08:28:55.190Z,63.10
2023-03-21T08:31:23.837Z,62.98
2023-03-21T08:33:54.830Z,63.15
2023-03-21T08:36:23.894Z,61.65
2023-03-21T08:38:57.026Z,61.48
2023-03-21T08:41:27.148Z,62.06
2023-03-21T08:43:55.676Z,61.19
2023-03-21T08:46:24.084Z,60.59
2023-03-21T08:48:52.541Z,60.50
2023-03-21T08:51:21.000Z,60.31
2023-03-21T08:53:51.186Z,60.53
2023-03-21T08:56:19.878Z,60.51
2023-03-21T08:58:49.858Z,60.85
2023-03-21T09:01:18.632Z,61.26
2023-03-21T09:03:47.058Z,61.00
2023-03-21T09:06:15.963Z,59.72
2023-03-21T09:08:46.409Z,59.15
2023-03-21T09:11:15.237Z,57.71
2023-03-21T09:13:43.709Z,57.61
2023-03-21T09:16:13.575Z,57.30
2023-03-21T09:18:49.645Z,57.42
2023-03-21T09:21:20.382Z,56.14
2023-03-21T09:23:52.957Z,55.44
2023-03-21T09:26:24.228Z,54.52
2023-03-21T09:28:53.324Z,54.24
2023-03-21T09:31:25.107Z,54.57
2023-03-21T09:33:56.200Z,54.16
2023-03-21T09:36:25.213Z,52.95
2023-03-21T09:38:53.963Z,52.98
2023-03-21T09:41:34.015Z,53.99
2023-03-21T09:44:15.589Z,54.35
2023-03-21T09:46:52.417Z,53.63
2023-03-21T09:49:25.781Z,53.79
2023-03-21T09:51:57.428Z,53.31
2023-03-21T09:54:29.115Z,53.11
2023-03-21T09:57:03.911Z,52.31
2023-03-21T09:59:38.355Z,52.31
2023-03-21T10:02:23.969Z,53.59
2023-03-21T10:04:53.124Z,52.58
2023-03-21T10:07:21.641Z,52.43
2023-03-21T10:09:52.692Z,53.22
2023-03-21T10:12:24.892Z,52.65
2023-03-21T10:14:57.964Z,53.76
2023-03-21T10:17:34.269Z,52.08
2023-03-21T10:20:13.539Z,52.39
2023-03-21T10:22:42.380Z,51.88
2023-03-21T10:25:18.010Z,51.86
2023-03-21T10:27:47.437Z,51.85
2023-03-21T10:30:29.567Z,51.12
2023-03-21T10:33:05.238Z,51.96
2023-03-21T10:35:37.522Z,51.54
2023-03-21T10:38:08.247Z,50.92
2023-03-21T10:40:36.660Z,51.46
2023-03-21T10:43:19.542Z,51.19
2023-03-21T10:45:48.940Z,50.75
2023-03-21T10:48:18.936Z,51.14
2023-03-21T10:50:50.712Z,51.14
2023-03-21T10:53:23.196Z,50.31
2023-03-21T10:55:55.537Z,51.11
2023-03-21T10:58:28.195Z,50.61
2023-03-21T11:00:59.372Z,48.78
2023-03-21T11:03:33.697Z,48.60
2023-03-21T11:06:05.316Z,49.41
2023-03-21T11:08:40.208Z,49.06
2023-03-21T11:11:12.531Z,48.60
2023-03-21T11:13:43.028Z,48.64
2023-03-21T11:16:13.444Z,49.50
2023-03-21T11:18:47.631Z,48.70
2023-03-21T11:21:17.208Z,48.22
2023-03-21T11:23:48.242Z,48.22
2023-03-21T11:26:24.421Z,47.73
2023-03-21T11:28:53.424Z,48.26
2023-03-21T11:31:25.000Z,48.87
2023-03-21T11:34:00.043Z,47.44
2023-03-21T11:36:35.274Z,47.85
2023-03-21T11:39:16.609Z,48.05
2023-03-21T11:41:49.489Z,47.68
2023-03-21T11:44:29.969Z,46.58
2023-03-21T11:46:58.836Z,46.60
2023-03-21T11:49:29.600Z,46.60
2023-03-21T11:52:13.641Z,46.79
2023-03-21T11:54:52.902Z,46.43
2023-03-21T11:57:31.592Z,45.93
2023-03-21T12:00:10.858Z,46.05
2023-03-21T12:03:02.914Z,45.75
2023-03-21T12:05:37.793Z,46.59
2023-03-21T12:08:21.713Z,46.99
2023-03-21T12:10:56.391Z,46.56
2023-03-21T12:13:39.209Z,46.07
2023-03-21T12:16:21.291Z,44.91
2023-03-21T12:19:23.915Z,44.96
2023-03-21T12:22:05.763Z,45.41
2023-03-21T12:24:38.881Z,44.17
2023-03-21T12:27:15.740Z,44.55
2023-03-21T12:30:00.107Z,45.13
2023-03-21T12:32:46.264Z,44.49
2023-03-21T12:35:33.611Z,44.68
2023-03-21T12:38:16.682Z,44.79
2023-03-21T12:40:54.870Z,44.19
2023-03-21T12:43:37.869Z,43.81
2023-03-21T12:46:13.194Z,43.39
2023-03-21T12:48:47.587Z,43.30
2023-03-21T12:51:19.926Z,43.33
2023-03-21T12:54:06.468Z,43.62
2023-03-21T12:56:39.560Z,42.68
2023-03-21T12:59:19.482Z,42.18
2023-03-21T13:01:51.890Z,42.30
2023-03-21T13:04:36.899Z,42.94
2023-03-21T13:07:09.278Z,42.52
2023-03-21T13:09:41.065Z,43.27
2023-03-21T13:12:25.827Z,42.45
2023-03-21T13:15:12.462Z,42.08
2023-03-21T13:17:49.990Z,41.41
2023-03-21T13:20:26.463Z,41.28
2023-03-21T13:22:54.909Z,41.34
2023-03-21T13:25:28.304Z,41.13
2023-03-21T13:28:03.289Z,41.25
2023-03-21T13:30:33.618Z,41.74
2023-03-21T13:33:07.220Z,41.87
2023-03-21T13:35:38.674Z,41.54
2023-03-21T13:38:16.583Z,41.86
2023-03-21T13:40:50.051Z,43.29
2023-03-21T13:43:53.814Z,43.28
2023-03-21T13:46:53.982Z,44.54
2023-03-21T13:49:32.496Z,44.66
2023-03-21T13:52:02.406Z,44.26
2023-03-21T13:54:49.791Z,44.24
2023-03-21T13:57:39.648Z,44.62
2023-03-21T14:00:25.804Z,44.51
2023-03-21T14:03:00.115Z,44.51
2023-03-21T14:05:30.487Z,44.60
2023-03-21T14:08:13.636Z,44.36
2023-03-21T14:10:46.444Z,44.81
2023-03-21T14:13:20.989Z,44.26
2023-03-21T14:15:55.955Z,44.46
2023-03-21T14:18:41.020Z,44.23
2023-03-21T14:21:23.763Z,44.29
2023-03-21T14:24:01.528Z,44.75
2023-03-21T14:26:33.416Z,45.64
2023-03-21T14:29:12.328Z,45.73
2023-03-21T14:31:47.281Z,45.08
2023-03-21T14:34:16.998Z,44.55
2023-03-21T14:36:56.838Z,43.81
2023-03-21T14:39:29.755Z,44.09
2023-03-21T14:42:03.575Z,44.09
2023-03-21T14:44:53.523Z,43.81
2023-03-21T14:47:25.333Z,44.04
2023-03-21T14:49:54.430Z,44.35
2023-03-21T14:52:26.238Z,44.34
2023-03-21T14:54:56.477Z,44.83
2023-03-21T14:57:28.896Z,44.87
2023-03-21T15:00:04.212Z,45.32
2023-03-21T15:02:36.757Z,45.41
2023-03-21T15:05:11.368Z,44.87
2023-03-21T15:07:39.906Z,45.04
2023-03-21T15:10:18.054Z,44.88
2023-03-21T15:12:54.599Z,45.55
2023-03-21T15:15:27.583Z,45.34
2023-03-21T15:18:00.828Z,45.39
2023-03-21T15:20:35.138Z,45.74
2023-03-21T15:23:07.176Z,45.58
2023-03-21T15:25:38.238Z,45.71
2023-03-21T15:28:07.495Z,45.98
2023-03-21T15:30:37.438Z,46.19
2023-03-21T15:33:11.837Z,46.40
2023-03-21T15:35:43.045Z,46.15
2023-03-21T15:38:23.924Z,46.28
2023-03-21T15:40:52.414Z,46.19
2023-03-21T15:43:21.348Z,46.17
2023-03-21T15:45:54.442Z,46.75
2023-03-21T15:48:26.306Z,47.38
2023-03-21T15:50:59.876Z,47.41
2023-03-21T15:53:28.320Z,47.23
2023-03-21T15:56:02.048Z,47.27
2023-03-21T15:58:37.350Z,47.21
2023-03-21T16:01:12.600Z,47.22
2023-03-21T16:03:46.104Z,47.41
2023-03-21T16:06:25.809Z,47.81
2023-03-21T16:09:04.425Z,48.03
2023-03-21T16:11:40.465Z,47.98
2023-03-21T16:14:09.347Z,48.57
2023-03-21T16:16:39.408Z,48.54
2023-03-21T16:19:08.661Z,48.42
2023-03-21T16:21:38.518Z,48.31
2023-03-21T16:24:09.146Z,48.56
2023-03-21T16:26:42.799Z,48.57
2023-03-21T16:29:13.889Z,48.25
2023-03-21T16:31:44.263Z,48.61
2023-03-21T16:34:13.812Z,48.64
2023-03-21T16:36:43.573Z,48.64
2023-03-21T16:39:18.151Z,48.54
2023-03-21T16:41:46.836Z,48.39
2023-03-21T16:44:15.578Z,48.74
2023-03-21T16:46:47.343Z,48.96
2023-03-21T16:49:21.649Z,48.98
2023-03-21T16:51:50.041Z,48.79
2023-03-21T16:54:18.733Z,48.92
2023-03-21T16:56:50.648Z,48.88
2023-03-21T16:59:19.426Z,48.96
2023-03-21T17:01:49.968Z,48.98
2023-03-21T17:04:19.647Z,49.07
2023-03-21T17:06:50.179Z,49.25
2023-03-21T17:09:20.314Z,49.59
2023-03-21T17:11:49.679Z,50.16
2023-03-21T17:14:18.850Z,50.12
2023-03-21T17:16:49.130Z,49.43
2023-03-21T17:19:19.482Z,49.87
2023-03-21T17:21:48.258Z,50.00
2023-03-21T17:24:16.972Z,49.60
2023-03-21T17:26:45.836Z,49.65
2023-03-21T17:29:15.516Z,50.22
2023-03-21T17:31:47.441Z,50.16
2023-03-21T17:34:17.874Z,50.25
2023-03-21T17:36:48.894Z,50.37
2023-03-21T17:39:21.639Z,50.71
2023-03-21T17:41:50.195Z,51.11
2023-03-21T17:44:18.739Z,51.23
2023-03-21T17:46:49.588Z,51.27
2023-03-21T17:49:21.329Z,51.78
2023-03-21T17:51:50.638Z,51.84
2023-03-21T17:54:19.128Z,51.81
2023-03-21T17:56:47.600Z,51.94
2023-03-21T17:59:16.697Z,52.59
2023-03-21T18:01:45.194Z,52.76
2023-03-21T18:04:13.723Z,53.37
2023-03-21T18:06:43.625Z,53.81
2023-03-21T18:09:12.446Z,54.17
2023-03-21T18:11:42.177Z,54.62
2023-03-21T18:14:17.229Z,55.04
2023-03-21T18:16:47.006Z,55.47
2023-03-21T18:19:16.448Z,56.09
2023-03-21T18:21:46.678Z,56.24
2023-03-21T18:24:15.515Z,54.98
2023-03-21T18:26:46.119Z,56.31
2023-03-21T18:30:15.930Z,56.87
2023-03-21T18:32:07.734Z,57.60
2023-03-21T18:34:38.770Z,57.84
2023-03-21T18:37:12.010Z,58.45
2023-03-21T18:39:42.655Z,58.46
2023-03-21T18:42:17.253Z,58.58
2023-03-21T18:44:47.996Z,58.62
2023-03-21T18:47:16.862Z,58.76
2023-03-21T18:50:12.771Z,59.15
2023-03-21T18:52:35.620Z,59.54
2023-03-21T18:55:05.331Z,59.52
2023-03-21T18:57:37.388Z,60.06
2023-03-21T19:00:13.453Z,60.88
2023-03-21T19:02:46.966Z,61.12
2023-03-21T19:05:17.606Z,61.34
2023-03-21T19:07:48.501Z,61.43
2023-03-21T19:10:20.095Z,60.89
2023-03-21T19:12:49.361Z,61.00
2023-03-21T19:15:19.854Z,60.78
2023-03-21T19:20:38.259Z,60.63
2023-03-21T19:23:10.068Z,60.98
2023-03-21T19:25:39.297Z,61.58
2023-03-21T19:28:08.372Z,61.40
2023-03-21T19:30:37.237Z,61.65
2023-03-21T19:33:07.550Z,61.48
2023-03-21T19:35:37.806Z,61.67
2023-03-21T19:38:07.992Z,61.68
2023-03-21T19:40:36.679Z,61.53
2023-03-21T19:43:29.825Z,61.32
2023-03-21T19:45:54.142Z,61.44
2023-03-21T19:48:23.544Z,61.55
2023-03-21T19:51:24.703Z,61.25
2023-03-21T19:53:42.284Z,61.44
2023-03-21T19:56:21.860Z,61.61
2023-03-21T19:58:52.287Z,62.23
2023-03-21T20:01:20.785Z,62.56
2023-03-21T20:03:49.601Z,62.90
2023-03-21T20:06:17.975Z,63.37
2023-03-21T20:11:37.964Z,64.23
2023-03-21T20:14:06.472Z,64.23
2023-03-21T20:16:36.785Z,64.17
2023-03-21T20:19:06.228Z,63.76
2023-03-21T20:21:45.324Z,63.76
2023-03-21T20:24:18.734Z,63.49
2023-03-21T20:26:47.307Z,63.77
2023-03-21T20:32:04.235Z,64.13
2023-03-21T20:34:33.108Z,64.06
2023-03-21T20:37:03.203Z,63.74
2023-03-21T20:39:33.087Z,63.86
2023-03-21T20:42:01.537Z,63.98
2023-03-21T20:44:57.815Z,64.02
2023-03-21T20:47:18.793Z,64.23
2023-03-21T20:49:47.324Z,64.17
2023-03-21T20:55:09.315Z,64.47
2023-03-21T20:57:38.929Z,64.65
2023-03-21T21:00:15.111Z,65.01
2023-03-21T21:02:45.137Z,65.53
2023-03-21T21:05:27.526Z,65.63
2023-03-21T21:07:57.438Z,65.66
2023-03-21T21:10:27.196Z,65.59
2023-03-21T21:12:55.751Z,65.96
2023-03-21T21:15:24.143Z,66.01
2023-03-21T21:18:06.506Z,66.13
2023-03-21T21:20:36.603Z,66.19
2023-03-21T21:23:06.152Z,66.25
2023-03-21T21:25:36.422Z,66.14
2023-03-21T21:28:09.284Z,65.86
2023-03-21T21:30:41.950Z,66.05
2023-03-21T21:33:11.568Z,65.84
2023-03-21T21:35:47.002Z,66.25
2023-03-21T21:38:17.927Z,66.09
2023-03-21T21:40:48.601Z,66.01
2023-03-21T21:43:19.145Z,66.52
2023-03-21T21:45:49.539Z,66.55
2023-03-21T21:48:18.071Z,66.61
2023-03-21T21:50:48.467Z,66.58
2023-03-21T21:53:19.186Z,66.60
2023-03-21T21:55:49.722Z,66.58
2023-03-21T21:58:19.320Z,67.00
2023-03-21T22:00:48.536Z,67.29
2023-03-21T22:03:22.217Z,67.41
2023-03-21T22:05:52.525Z,67.26
2023-03-21T22:08:23.154Z,67.35
2023-03-21T22:10:54.022Z,67.33
2023-03-21T22:13:22.377Z,67.48
2023-03-21T22:15:51.838Z,67.10
2023-03-21T22:18:20.289Z,67.18
2023-03-21T22:20:49.033Z,67.27
2023-03-21T22:23:19.506Z,67.29
2023-03-21T22:25:52.210Z,66.82
2023-03-21T22:28:25.792Z,66.79
2023-03-21T22:30:54.442Z,66.60
2023-03-21T22:33:22.968Z,66.80
2023-03-21T22:35:51.799Z,66.88
2023-03-21T22:38:24.348Z,66.80
2023-03-21T22:40:56.507Z,67.01
2023-03-21T22:43:26.824Z,66.87
2023-03-21T22:45:55.528Z,66.54
2023-03-21T22:48:24.208Z,66.89
2023-03-21T22:50:52.731Z,66.88
2023-03-21T22:53:21.187Z,66.80
2023-03-21T22:55:50.578Z,67.56
2023-03-21T22:58:19.989Z,67.35
2023-03-21T23:00:50.214Z,67.45
2023-03-21T23:03:19.039Z,67.95
2023-03-21T23:05:47.546Z,67.78
2023-03-21T23:08:16.140Z,67.67
2023-03-21T23:10:46.090Z,67.68
2023-03-21T23:13:14.533Z,68.53
2023-03-21T23:15:43.111Z,67.99
2023-03-21T23:18:14.986Z,68.06
2023-03-21T23:20:43.412Z,67.78
2023-03-21T23:23:11.790Z,67.51
2023-03-21T23:25:42.478Z,68.25
2023-03-21T23:28:11.292Z,68.70
2023-03-21T23:30:39.955Z,68.48
2023-03-21T23:33:08.583Z,68.58
2023-03-21T23:35:39.556Z,68.10
2023-03-21T23:38:08.060Z,68.71
2023-03-21T23:40:39.484Z,68.80
2023-03-21T23:43:08.027Z,69.00
2023-03-21T23:45:36.843Z,68.10
2023-03-21T23:48:07.640Z,68.70
2023-03-21T23:50:36.206Z,68.47
2023-03-21T23:53:06.013Z,68.29
2023-03-21T23:55:37.852Z,68.62
2023-03-21T23:58:09.497Z,68.31
